sensor_id;sensor_type;location;lat;lon;timestamp;temperature;humidity
19397;DHT22;9834;48.076;11.878;2023-07-13T00:02:05;16.90;99.90
19397;DHT22;9834;48.076;11.878;2023-07-13T00:04:33;16.90;99.90
19397;DHT22;9834;48.076;11.878;2023-07-13T00:07:00;16.90;99.90
19397;DHT22;9834;48.076;11.878;2023-07-13T00:09:27;16.90;99.90
19397;DHT22;9834;48.076;11.878;2023-07-13T00:11:56;16.90;99.90
19397;DHT22;9834;48.076;11.878;2023-07-13T00:14:25;16.90;99.90
19397;DHT22;9834;48.076;11.878;2023-07-13T00:16:55;16.90;99.90
19397;DHT22;9834;48.076;11.878;2023-07-13T00:19:22;16.80;99.90
19397;DHT22;9834;48.076;11.878;2023-07-13T00:21:49;16.80;99.90
19397;DHT22;9834;48.076;11.878;2023-07-13T00:24:17;16.90;99.90
19397;DHT22;9834;48.076;11.878;2023-07-13T00:26:49;16.80;99.90
19397;DHT22;9834;48.076;11.878;2023-07-13T00:29:18;16.90;99.90
19397;DHT22;9834;48.076;11.878;2023-07-13T00:31:46;16.90;99.90
19397;DHT22;9834;48.076;11.878;2023-07-13T00:34:13;16.90;99.90
19397;DHT22;9834;48.076;11.878;2023-07-13T00:36:40;16.90;99.90
19397;DHT22;9834;48.076;11.878;2023-07-13T00:39:07;16.90;99.90
19397;DHT22;9834;48.076;11.878;2023-07-13T00:41:35;16.90;99.90
19397;DHT22;9834;48.076;11.878;2023-07-13T00:44:02;16.90;99.90
19397;DHT22;9834;48.076;11.878;2023-07-13T00:46:32;16.90;99.90
19397;DHT22;9834;48.076;11.878;2023-07-13T00:49:02;16.90;99.90
19397;DHT22;9834;48.076;11.878;2023-07-13T00:51:34;17.00;99.90
19397;DHT22;9834;48.076;11.878;2023-07-13T00:54:07;17.00;99.90
19397;DHT22;9834;48.076;11.878;2023-07-13T00:56:35;17.00;99.90
19397;DHT22;9834;48.076;11.878;2023-07-13T00:59:05;17.00;99.90
19397;DHT22;9834;48.076;11.878;2023-07-13T01:01:34;17.10;99.90
19397;DHT22;9834;48.076;11.878;2023-07-13T01:04:02;17.00;99.90
19397;DHT22;9834;48.076;11.878;2023-07-13T01:06:33;17.00;99.90
19397;DHT22;9834;48.076;11.878;2023-07-13T01:09:01;17.00;99.90
19397;DHT22;9834;48.076;11.878;2023-07-13T01:11:28;17.00;99.90
19397;DHT22;9834;48.076;11.878;2023-07-13T01:13:55;17.00;99.90
19397;DHT22;9834;48.076;11.878;2023-07-13T01:16:26;16.90;99.90
19397;DHT22;9834;48.076;11.878;2023-07-13T01:18:55;16.90;99.90
19397;DHT22;9834;48.076;11.878;2023-07-13T01:21:27;16.90;99.90
19397;DHT22;9834;48.076;11.878;2023-07-13T01:23:54;16.90;99.90
19397;DHT22;9834;48.076;11.878;2023-07-13T01:26:21;16.90;99.90
19397;DHT22;9834;48.076;11.878;2023-07-13T01:28:48;16.90;99.90
19397;DHT22;9834;48.076;11.878;2023-07-13T01:31:15;16.90;99.90
19397;DHT22;9834;48.076;11.878;2023-07-13T01:33:42;16.80;99.90
19397;DHT22;9834;48.076;11.878;2023-07-13T01:36:10;16.80;99.90
19397;DHT22;9834;48.076;11.878;2023-07-13T01:38:39;16.80;99.90
19397;DHT22;9834;48.076;11.878;2023-07-13T01:41:06;16.80;99.90
19397;DHT22;9834;48.076;11.878;2023-07-13T01:43:33;16.80;99.90
19397;DHT22;9834;48.076;11.878;2023-07-13T01:46:00;16.80;99.90
19397;DHT22;9834;48.076;11.878;2023-07-13T01:48:27;16.80;99.90
19397;DHT22;9834;48.076;11.878;2023-07-13T01:50:54;16.80;99.90
19397;DHT22;9834;48.076;11.878;2023-07-13T01:53:21;16.80;99.90
19397;DHT22;9834;48.076;11.878;2023-07-13T01:55:49;16.80;99.90
19397;DHT22;9834;48.076;11.878;2023-07-13T01:58:16;16.80;99.90
19397;DHT22;9834;48.076;11.878;2023-07-13T02:00:44;16.80;99.90
19397;DHT22;9834;48.076;11.878;2023-07-13T02:03:10;16.90;99.90
19397;DHT22;9834;48.076;11.878;2023-07-13T02:05:40;16.90;99.90
19397;DHT22;9834;48.076;11.878;2023-07-13T02:08:07;17.00;99.90
19397;DHT22;9834;48.076;11.878;2023-07-13T02:10:34;17.00;99.90
19397;DHT22;9834;48.076;11.878;2023-07-13T02:13:04;16.90;99.90
19397;DHT22;9834;48.076;11.878;2023-07-13T02:15:31;17.00;99.90
19397;DHT22;9834;48.076;11.878;2023-07-13T02:17:58;16.90;99.90
19397;DHT22;9834;48.076;11.878;2023-07-13T02:20:26;16.90;99.90
19397;DHT22;9834;48.076;11.878;2023-07-13T02:22:52;16.90;99.90
19397;DHT22;9834;48.076;11.878;2023-07-13T02:25:19;16.90;99.90
19397;DHT22;9834;48.076;11.878;2023-07-13T02:27:46;16.90;99.90
19397;DHT22;9834;48.076;11.878;2023-07-13T02:30:15;16.90;99.90
19397;DHT22;9834;48.076;11.878;2023-07-13T02:32:42;16.90;99.90
19397;DHT22;9834;48.076;11.878;2023-07-13T02:35:09;16.90;99.90
19397;DHT22;9834;48.076;11.878;2023-07-13T02:37:36;16.90;99.90
19397;DHT22;9834;48.076;11.878;2023-07-13T02:40:04;16.90;99.90
19397;DHT22;9834;48.076;11.878;2023-07-13T02:42:34;16.90;99.90
19397;DHT22;9834;48.076;11.878;2023-07-13T02:45:00;16.90;99.90
19397;DHT22;9834;48.076;11.878;2023-07-13T02:47:29;16.90;99.90
19397;DHT22;9834;48.076;11.878;2023-07-13T02:49:56;16.90;99.90
19397;DHT22;9834;48.076;11.878;2023-07-13T02:52:23;16.90;99.90
19397;DHT22;9834;48.076;11.878;2023-07-13T02:54:50;16.90;99.90
19397;DHT22;9834;48.076;11.878;2023-07-13T02:57:17;16.90;99.90
19397;DHT22;9834;48.076;11.878;2023-07-13T02:59:44;16.90;99.90
19397;DHT22;9834;48.076;11.878;2023-07-13T03:02:11;16.80;99.90
19397;DHT22;9834;48.076;11.878;2023-07-13T03:04:40;16.80;99.90
19397;DHT22;9834;48.076;11.878;2023-07-13T03:07:07;16.90;99.90
19397;DHT22;9834;48.076;11.878;2023-07-13T03:09:35;16.90;99.90
19397;DHT22;9834;48.076;11.878;2023-07-13T03:12:03;16.90;99.90
19397;DHT22;9834;48.076;11.878;2023-07-13T03:14:30;16.90;99.90
19397;DHT22;9834;48.076;11.878;2023-07-13T03:16:57;16.90;99.90
19397;DHT22;9834;48.076;11.878;2023-07-13T03:19:24;16.80;99.90
19397;DHT22;9834;48.076;11.878;2023-07-13T03:21:53;16.90;99.90
19397;DHT22;9834;48.076;11.878;2023-07-13T03:24:20;16.80;99.90
19397;DHT22;9834;48.076;11.878;2023-07-13T03:26:51;16.80;99.90
19397;DHT22;9834;48.076;11.878;2023-07-13T03:29:18;16.70;99.90
19397;DHT22;9834;48.076;11.878;2023-07-13T03:31:45;16.70;99.90
19397;DHT22;9834;48.076;11.878;2023-07-13T03:34:12;16.70;99.90
19397;DHT22;9834;48.076;11.878;2023-07-13T03:36:39;16.70;99.90
19397;DHT22;9834;48.076;11.878;2023-07-13T03:39:09;16.70;99.90
19397;DHT22;9834;48.076;11.878;2023-07-13T03:41:36;16.80;99.90
19397;DHT22;9834;48.076;11.878;2023-07-13T03:44:04;16.80;99.90
19397;DHT22;9834;48.076;11.878;2023-07-13T03:46:34;16.80;99.90
19397;DHT22;9834;48.076;11.878;2023-07-13T03:49:14;16.80;99.90
19397;DHT22;9834;48.076;11.878;2023-07-13T03:51:41;16.80;99.90
19397;DHT22;9834;48.076;11.878;2023-07-13T03:54:10;16.80;99.90
19397;DHT22;9834;48.076;11.878;2023-07-13T03:56:39;16.80;99.90
19397;DHT22;9834;48.076;11.878;2023-07-13T03:59:27;16.80;99.90
19397;DHT22;9834;48.076;11.878;2023-07-13T04:01:54;17.00;99.90
19397;DHT22;9834;48.076;11.878;2023-07-13T04:04:22;16.80;99.90
19397;DHT22;9834;48.076;11.878;2023-07-13T04:06:50;16.80;99.90
19397;DHT22;9834;48.076;11.878;2023-07-13T04:09:19;16.70;99.90
19397;DHT22;9834;48.076;11.878;2023-07-13T04:11:46;16.60;99.90
19397;DHT22;9834;48.076;11.878;2023-07-13T04:14:13;16.50;99.90
19397;DHT22;9834;48.076;11.878;2023-07-13T04:16:40;16.40;99.90
19397;DHT22;9834;48.076;11.878;2023-07-13T04:19:08;16.40;99.90
19397;DHT22;9834;48.076;11.878;2023-07-13T04:21:36;16.30;99.90
19397;DHT22;9834;48.076;11.878;2023-07-13T04:24:03;16.30;99.90
19397;DHT22;9834;48.076;11.878;2023-07-13T04:26:32;16.30;99.90
19397;DHT22;9834;48.076;11.878;2023-07-13T04:29:02;16.30;99.90
19397;DHT22;9834;48.076;11.878;2023-07-13T04:31:29;16.30;99.90
19397;DHT22;9834;48.076;11.878;2023-07-13T04:33:56;16.30;99.90
19397;DHT22;9834;48.076;11.878;2023-07-13T04:36:24;16.30;99.90
19397;DHT22;9834;48.076;11.878;2023-07-13T04:38:55;16.30;99.90
19397;DHT22;9834;48.076;11.878;2023-07-13T04:41:22;16.30;99.90
19397;DHT22;9834;48.076;11.878;2023-07-13T04:43:50;16.40;99.90
19397;DHT22;9834;48.076;11.878;2023-07-13T04:46:18;16.30;99.90
19397;DHT22;9834;48.076;11.878;2023-07-13T04:48:45;16.30;99.90
19397;DHT22;9834;48.076;11.878;2023-07-13T04:51:12;16.30;99.90
19397;DHT22;9834;48.076;11.878;2023-07-13T04:53:39;16.30;99.90
19397;DHT22;9834;48.076;11.878;2023-07-13T04:56:06;16.30;99.90
19397;DHT22;9834;48.076;11.878;2023-07-13T04:58:33;16.30;99.90
19397;DHT22;9834;48.076;11.878;2023-07-13T05:01:03;16.30;99.90
19397;DHT22;9834;48.076;11.878;2023-07-13T05:03:30;16.40;99.90
19397;DHT22;9834;48.076;11.878;2023-07-13T05:05:59;16.40;99.90
19397;DHT22;9834;48.076;11.878;2023-07-13T05:08:26;16.40;99.90
19397;DHT22;9834;48.076;11.878;2023-07-13T05:10:54;16.50;99.90
19397;DHT22;9834;48.076;11.878;2023-07-13T05:13:21;16.40;99.90
19397;DHT22;9834;48.076;11.878;2023-07-13T05:16:07;16.40;99.90
19397;DHT22;9834;48.076;11.878;2023-07-13T05:18:35;16.40;99.90
19397;DHT22;9834;48.076;11.878;2023-07-13T05:21:04;16.40;99.90
19397;DHT22;9834;48.076;11.878;2023-07-13T05:23:32;16.30;99.90
19397;DHT22;9834;48.076;11.878;2023-07-13T05:26:00;16.40;99.90
19397;DHT22;9834;48.076;11.878;2023-07-13T05:28:28;16.30;99.90
19397;DHT22;9834;48.076;11.878;2023-07-13T05:30:55;16.30;99.90
19397;DHT22;9834;48.076;11.878;2023-07-13T05:33:23;16.30;99.90
19397;DHT22;9834;48.076;11.878;2023-07-13T05:35:54;16.30;99.90
19397;DHT22;9834;48.076;11.878;2023-07-13T05:38:21;16.30;99.90
19397;DHT22;9834;48.076;11.878;2023-07-13T05:40:49;16.30;99.90
19397;DHT22;9834;48.076;11.878;2023-07-13T05:43:17;16.30;99.90
19397;DHT22;9834;48.076;11.878;2023-07-13T05:45:43;16.40;99.90
19397;DHT22;9834;48.076;11.878;2023-07-13T05:48:10;16.40;99.90
19397;DHT22;9834;48.076;11.878;2023-07-13T05:50:39;16.50;99.90
19397;DHT22;9834;48.076;11.878;2023-07-13T05:53:06;16.50;99.90
19397;DHT22;9834;48.076;11.878;2023-07-13T05:55:33;16.50;99.90
19397;DHT22;9834;48.076;11.878;2023-07-13T05:58:01;16.50;99.90
19397;DHT22;9834;48.076;11.878;2023-07-13T06:00:28;16.60;99.90
19397;DHT22;9834;48.076;11.878;2023-07-13T06:02:56;16.60;99.90
19397;DHT22;9834;48.076;11.878;2023-07-13T06:05:24;16.60;99.90
19397;DHT22;9834;48.076;11.878;2023-07-13T06:07:52;16.60;99.90
19397;DHT22;9834;48.076;11.878;2023-07-13T06:10:19;16.60;99.90
19397;DHT22;9834;48.076;11.878;2023-07-13T06:12:46;16.70;99.90
19397;DHT22;9834;48.076;11.878;2023-07-13T06:15:14;16.80;99.90
19397;DHT22;9834;48.076;11.878;2023-07-13T06:17:41;16.80;99.90
19397;DHT22;9834;48.076;11.878;2023-07-13T06:20:09;16.90;99.90
19397;DHT22;9834;48.076;11.878;2023-07-13T06:22:36;17.20;99.90
19397;DHT22;9834;48.076;11.878;2023-07-13T06:25:06;17.50;99.90
19397;DHT22;9834;48.076;11.878;2023-07-13T06:27:34;17.60;99.90
19397;DHT22;9834;48.076;11.878;2023-07-13T06:30:08;17.50;99.90
19397;DHT22;9834;48.076;11.878;2023-07-13T06:32:40;17.50;99.90
19397;DHT22;9834;48.076;11.878;2023-07-13T06:35:08;17.60;99.90
19397;DHT22;9834;48.076;11.878;2023-07-13T06:37:38;17.60;99.90
19397;DHT22;9834;48.076;11.878;2023-07-13T06:40:08;17.70;99.90
19397;DHT22;9834;48.076;11.878;2023-07-13T06:42:35;17.80;99.90
19397;DHT22;9834;48.076;11.878;2023-07-13T06:45:02;17.80;99.90
19397;DHT22;9834;48.076;11.878;2023-07-13T06:47:29;17.80;99.90
19397;DHT22;9834;48.076;11.878;2023-07-13T06:49:56;17.90;99.90
19397;DHT22;9834;48.076;11.878;2023-07-13T06:52:23;18.00;99.90
19397;DHT22;9834;48.076;11.878;2023-07-13T06:54:50;17.90;99.90
19397;DHT22;9834;48.076;11.878;2023-07-13T06:57:18;18.00;99.90
19397;DHT22;9834;48.076;11.878;2023-07-13T06:59:45;18.00;99.90
19397;DHT22;9834;48.076;11.878;2023-07-13T07:02:12;18.10;99.90
19397;DHT22;9834;48.076;11.878;2023-07-13T07:04:39;18.20;99.90
19397;DHT22;9834;48.076;11.878;2023-07-13T07:07:06;18.30;99.90
19397;DHT22;9834;48.076;11.878;2023-07-13T07:09:33;18.40;99.90
19397;DHT22;9834;48.076;11.878;2023-07-13T07:12:00;18.40;99.90
19397;DHT22;9834;48.076;11.878;2023-07-13T07:14:28;18.40;99.90
19397;DHT22;9834;48.076;11.878;2023-07-13T07:16:55;18.40;99.90
19397;DHT22;9834;48.076;11.878;2023-07-13T07:19:24;18.40;99.90
19397;DHT22;9834;48.076;11.878;2023-07-13T07:21:51;18.40;99.90
19397;DHT22;9834;48.076;11.878;2023-07-13T07:24:17;18.50;99.90
19397;DHT22;9834;48.076;11.878;2023-07-13T07:26:44;18.40;99.90
19397;DHT22;9834;48.076;11.878;2023-07-13T07:29:11;18.30;99.90
19397;DHT22;9834;48.076;11.878;2023-07-13T07:31:39;18.40;99.90
19397;DHT22;9834;48.076;11.878;2023-07-13T07:34:06;18.60;99.90
19397;DHT22;9834;48.076;11.878;2023-07-13T07:36:34;18.70;99.90
19397;DHT22;9834;48.076;11.878;2023-07-13T07:39:01;18.60;99.90
19397;DHT22;9834;48.076;11.878;2023-07-13T07:41:28;18.70;99.90
19397;DHT22;9834;48.076;11.878;2023-07-13T07:43:55;18.70;99.90
19397;DHT22;9834;48.076;11.878;2023-07-13T07:46:22;18.80;99.90
19397;DHT22;9834;48.076;11.878;2023-07-13T07:48:50;18.90;99.90
19397;DHT22;9834;48.076;11.878;2023-07-13T07:51:17;18.90;99.90
19397;DHT22;9834;48.076;11.878;2023-07-13T07:53:44;18.70;99.90
19397;DHT22;9834;48.076;11.878;2023-07-13T07:56:11;18.60;99.90
19397;DHT22;9834;48.076;11.878;2023-07-13T07:58:38;18.40;99.90
19397;DHT22;9834;48.076;11.878;2023-07-13T08:01:05;18.30;99.90
19397;DHT22;9834;48.076;11.878;2023-07-13T08:03:33;18.10;99.90
19397;DHT22;9834;48.076;11.878;2023-07-13T08:06:03;18.10;99.90
19397;DHT22;9834;48.076;11.878;2023-07-13T08:08:30;18.20;99.90
19397;DHT22;9834;48.076;11.878;2023-07-13T08:10:57;18.30;99.90
19397;DHT22;9834;48.076;11.878;2023-07-13T08:13:24;18.50;99.90
19397;DHT22;9834;48.076;11.878;2023-07-13T08:15:51;18.50;99.90
19397;DHT22;9834;48.076;11.878;2023-07-13T08:18:18;18.50;99.90
19397;DHT22;9834;48.076;11.878;2023-07-13T08:20:45;18.50;99.90
19397;DHT22;9834;48.076;11.878;2023-07-13T08:23:13;18.70;99.90
19397;DHT22;9834;48.076;11.878;2023-07-13T08:25:42;18.70;99.90
19397;DHT22;9834;48.076;11.878;2023-07-13T08:28:12;18.70;99.90
19397;DHT22;9834;48.076;11.878;2023-07-13T08:30:39;18.70;99.90
19397;DHT22;9834;48.076;11.878;2023-07-13T08:33:06;18.50;99.90
19397;DHT22;9834;48.076;11.878;2023-07-13T08:35:33;18.50;99.90
19397;DHT22;9834;48.076;11.878;2023-07-13T08:38:00;18.50;99.90
19397;DHT22;9834;48.076;11.878;2023-07-13T08:40:28;18.50;99.90
19397;DHT22;9834;48.076;11.878;2023-07-13T08:42:57;18.50;99.90
19397;DHT22;9834;48.076;11.878;2023-07-13T08:45:30;18.40;99.90
19397;DHT22;9834;48.076;11.878;2023-07-13T08:48:03;18.40;99.90
19397;DHT22;9834;48.076;11.878;2023-07-13T08:50:35;18.50;99.90
19397;DHT22;9834;48.076;11.878;2023-07-13T08:53:06;18.50;99.90
19397;DHT22;9834;48.076;11.878;2023-07-13T08:55:36;18.50;99.90
19397;DHT22;9834;48.076;11.878;2023-07-13T08:58:09;18.40;99.90
19397;DHT22;9834;48.076;11.878;2023-07-13T09:00:43;18.40;99.90
19397;DHT22;9834;48.076;11.878;2023-07-13T09:03:18;18.40;99.90
19397;DHT22;9834;48.076;11.878;2023-07-13T09:05:50;18.30;99.90
19397;DHT22;9834;48.076;11.878;2023-07-13T09:08:37;18.30;99.90
19397;DHT22;9834;48.076;11.878;2023-07-13T09:11:23;18.30;99.90
19397;DHT22;9834;48.076;11.878;2023-07-13T09:13:59;18.20;99.90
19397;DHT22;9834;48.076;11.878;2023-07-13T09:16:27;18.10;99.90
19397;DHT22;9834;48.076;11.878;2023-07-13T09:18:59;18.10;99.90
19397;DHT22;9834;48.076;11.878;2023-07-13T09:21:31;18.20;99.90
19397;DHT22;9834;48.076;11.878;2023-07-13T09:24:01;18.10;99.90
19397;DHT22;9834;48.076;11.878;2023-07-13T09:26:32;18.00;99.90
19397;DHT22;9834;48.076;11.878;2023-07-13T09:29:06;18.20;99.90
19397;DHT22;9834;48.076;11.878;2023-07-13T09:31:41;18.40;99.90
19397;DHT22;9834;48.076;11.878;2023-07-13T09:34:11;18.30;99.90
19397;DHT22;9834;48.076;11.878;2023-07-13T09:36:38;18.40;99.90
19397;DHT22;9834;48.076;11.878;2023-07-13T09:39:10;18.50;99.90
19397;DHT22;9834;48.076;11.878;2023-07-13T09:41:47;18.50;99.90
19397;DHT22;9834;48.076;11.878;2023-07-13T09:44:18;18.40;99.90
19397;DHT22;9834;48.076;11.878;2023-07-13T09:46:55;18.40;99.90
19397;DHT22;9834;48.076;11.878;2023-07-13T09:49:24;18.40;99.90
19397;DHT22;9834;48.076;11.878;2023-07-13T09:51:58;18.50;99.90
19397;DHT22;9834;48.076;11.878;2023-07-13T09:54:33;18.40;99.90
19397;DHT22;9834;48.076;11.878;2023-07-13T09:57:04;18.40;99.90
19397;DHT22;9834;48.076;11.878;2023-07-13T09:59:41;18.30;99.90
19397;DHT22;9834;48.076;11.878;2023-07-13T10:02:24;18.40;99.90
19397;DHT22;9834;48.076;11.878;2023-07-13T10:05:02;18.70;99.90
19397;DHT22;9834;48.076;11.878;2023-07-13T10:07:38;19.00;99.90
19397;DHT22;9834;48.076;11.878;2023-07-13T10:10:15;19.20;99.90
19397;DHT22;9834;48.076;11.878;2023-07-13T10:12:44;19.30;99.90
19397;DHT22;9834;48.076;11.878;2023-07-13T10:15:15;19.40;99.90
19397;DHT22;9834;48.076;11.878;2023-07-13T10:17:44;19.60;99.90
19397;DHT22;9834;48.076;11.878;2023-07-13T10:20:11;19.70;99.90
19397;DHT22;9834;48.076;11.878;2023-07-13T10:22:44;19.80;99.90
19397;DHT22;9834;48.076;11.878;2023-07-13T10:25:18;19.80;99.90
19397;DHT22;9834;48.076;11.878;2023-07-13T10:27:47;19.70;99.90
19397;DHT22;9834;48.076;11.878;2023-07-13T10:30:20;19.80;99.90
19397;DHT22;9834;48.076;11.878;2023-07-13T10:32:49;20.10;99.90
19397;DHT22;9834;48.076;11.878;2023-07-13T10:35:20;20.50;99.90
19397;DHT22;9834;48.076;11.878;2023-07-13T10:37:51;20.70;99.90
19397;DHT22;9834;48.076;11.878;2023-07-13T10:40:24;21.00;99.90
19397;DHT22;9834;48.076;11.878;2023-07-13T10:42:56;21.40;99.90
19397;DHT22;9834;48.076;11.878;2023-07-13T10:45:25;22.00;99.90
19397;DHT22;9834;48.076;11.878;2023-07-13T10:47:54;22.40;99.90
19397;DHT22;9834;48.076;11.878;2023-07-13T10:50:23;22.90;99.90
19397;DHT22;9834;48.076;11.878;2023-07-13T10:52:52;23.60;99.90
19397;DHT22;9834;48.076;11.878;2023-07-13T10:55:35;24.10;97.90
19397;DHT22;9834;48.076;11.878;2023-07-13T10:58:13;24.60;95.60
19397;DHT22;9834;48.076;11.878;2023-07-13T11:00:49;24.80;90.80
19397;DHT22;9834;48.076;11.878;2023-07-13T11:03:20;24.70;85.80
19397;DHT22;9834;48.076;11.878;2023-07-13T11:05:51;24.70;87.00
19397;DHT22;9834;48.076;11.878;2023-07-13T11:08:34;24.80;82.30
19397;DHT22;9834;48.076;11.878;2023-07-13T11:11:03;25.50;78.40
19397;DHT22;9834;48.076;11.878;2023-07-13T11:13:55;26.60;76.00
19397;DHT22;9834;48.076;11.878;2023-07-13T11:16:43;27.20;73.40
19397;DHT22;9834;48.076;11.878;2023-07-13T11:19:41;27.10;67.70
19397;DHT22;9834;48.076;11.878;2023-07-13T11:22:15;27.30;65.30
19397;DHT22;9834;48.076;11.878;2023-07-13T11:24:56;27.90;64.10
19397;DHT22;9834;48.076;11.878;2023-07-13T11:27:35;27.70;63.30
19397;DHT22;9834;48.076;11.878;2023-07-13T11:30:24;27.90;61.30
19397;DHT22;9834;48.076;11.878;2023-07-13T11:33:02;28.50;58.50
19397;DHT22;9834;48.076;11.878;2023-07-13T11:35:33;30.30;54.60
19397;DHT22;9834;48.076;11.878;2023-07-13T11:38:02;31.60;50.90
19397;DHT22;9834;48.076;11.878;2023-07-13T11:40:30;32.00;47.00
19397;DHT22;9834;48.076;11.878;2023-07-13T11:43:00;31.40;47.40
19397;DHT22;9834;48.076;11.878;2023-07-13T11:45:30;30.30;47.40
19397;DHT22;9834;48.076;11.878;2023-07-13T11:47:57;29.60;52.20
19397;DHT22;9834;48.076;11.878;2023-07-13T11:50:25;30.20;50.50
19397;DHT22;9834;48.076;11.878;2023-07-13T11:52:54;31.10;51.50
19397;DHT22;9834;48.076;11.878;2023-07-13T11:55:23;32.10;46.50
19397;DHT22;9834;48.076;11.878;2023-07-13T11:57:54;32.10;46.40
19397;DHT22;9834;48.076;11.878;2023-07-13T12:00:26;32.90;46.20
19397;DHT22;9834;48.076;11.878;2023-07-13T12:02:57;33.20;43.10
19397;DHT22;9834;48.076;11.878;2023-07-13T12:05:26;33.70;46.60
19397;DHT22;9834;48.076;11.878;2023-07-13T12:07:53;34.80;46.30
19397;DHT22;9834;48.076;11.878;2023-07-13T12:10:23;35.90;39.50
19397;DHT22;9834;48.076;11.878;2023-07-13T12:12:53;35.80;39.70
19397;DHT22;9834;48.076;11.878;2023-07-13T12:15:20;34.80;38.20
19397;DHT22;9834;48.076;11.878;2023-07-13T12:17:49;35.00;41.30
19397;DHT22;9834;48.076;11.878;2023-07-13T12:20:21;35.70;40.10
19397;DHT22;9834;48.076;11.878;2023-07-13T12:22:50;35.80;40.00
19397;DHT22;9834;48.076;11.878;2023-07-13T12:25:18;35.30;40.50
19397;DHT22;9834;48.076;11.878;2023-07-13T12:27:50;34.10;39.40
19397;DHT22;9834;48.076;11.878;2023-07-13T12:30:25;33.40;41.60
19397;DHT22;9834;48.076;11.878;2023-07-13T12:32:59;32.10;44.40
19397;DHT22;9834;48.076;11.878;2023-07-13T12:35:29;32.80;45.50
19397;DHT22;9834;48.076;11.878;2023-07-13T12:38:01;34.40;41.00
19397;DHT22;9834;48.076;11.878;2023-07-13T12:40:32;33.60;42.30
19397;DHT22;9834;48.076;11.878;2023-07-13T12:43:01;32.60;43.30
19397;DHT22;9834;48.076;11.878;2023-07-13T12:45:30;32.20;43.70
19397;DHT22;9834;48.076;11.878;2023-07-13T12:47:59;32.90;42.80
19397;DHT22;9834;48.076;11.878;2023-07-13T12:50:41;33.00;42.50
19397;DHT22;9834;48.076;11.878;2023-07-13T12:53:13;32.60;40.50
19397;DHT22;9834;48.076;11.878;2023-07-13T12:55:41;33.10;41.90
19397;DHT22;9834;48.076;11.878;2023-07-13T12:58:16;33.80;40.50
19397;DHT22;9834;48.076;11.878;2023-07-13T13:00:49;34.20;39.40
19397;DHT22;9834;48.076;11.878;2023-07-13T13:03:22;34.10;39.20
19397;DHT22;9834;48.076;11.878;2023-07-13T13:05:58;34.20;39.90
19397;DHT22;9834;48.076;11.878;2023-07-13T13:08:29;33.80;40.50
19397;DHT22;9834;48.076;11.878;2023-07-13T13:10:56;33.80;39.30
19397;DHT22;9834;48.076;11.878;2023-07-13T13:13:23;34.20;40.90
19397;DHT22;9834;48.076;11.878;2023-07-13T13:15:51;35.40;41.00
19397;DHT22;9834;48.076;11.878;2023-07-13T13:18:22;36.70;35.10
19397;DHT22;9834;48.076;11.878;2023-07-13T13:20:50;36.60;34.20
19397;DHT22;9834;48.076;11.878;2023-07-13T13:23:20;36.10;34.60
19397;DHT22;9834;48.076;11.878;2023-07-13T13:25:50;35.30;34.70
19397;DHT22;9834;48.076;11.878;2023-07-13T13:28:19;34.90;35.90
19397;DHT22;9834;48.076;11.878;2023-07-13T13:30:47;35.20;35.00
19397;DHT22;9834;48.076;11.878;2023-07-13T13:33:17;35.40;35.70
19397;DHT22;9834;48.076;11.878;2023-07-13T13:35:44;33.70;35.80
19397;DHT22;9834;48.076;11.878;2023-07-13T13:38:12;32.70;37.60
19397;DHT22;9834;48.076;11.878;2023-07-13T13:40:41;33.80;38.20
19397;DHT22;9834;48.076;11.878;2023-07-13T13:43:14;36.40;33.80
19397;DHT22;9834;48.076;11.878;2023-07-13T13:45:42;37.40;32.40
19397;DHT22;9834;48.076;11.878;2023-07-13T13:48:14;36.10;31.80
19397;DHT22;9834;48.076;11.878;2023-07-13T13:50:42;34.40;38.70
19397;DHT22;9834;48.076;11.878;2023-07-13T13:53:10;34.60;35.60
19397;DHT22;9834;48.076;11.878;2023-07-13T13:55:39;36.00;34.40
19397;DHT22;9834;48.076;11.878;2023-07-13T13:58:09;35.70;32.60
19397;DHT22;9834;48.076;11.878;2023-07-13T14:00:38;33.70;35.50
19397;DHT22;9834;48.076;11.878;2023-07-13T14:03:05;33.80;38.10
19397;DHT22;9834;48.076;11.878;2023-07-13T14:05:35;34.10;36.60
19397;DHT22;9834;48.076;11.878;2023-07-13T14:08:02;32.40;38.80
19397;DHT22;9834;48.076;11.878;2023-07-13T14:10:29;30.30;41.50
19397;DHT22;9834;48.076;11.878;2023-07-13T14:12:56;28.40;45.60
19397;DHT22;9834;48.076;11.878;2023-07-13T14:15:27;27.20;48.20
19397;DHT22;9834;48.076;11.878;2023-07-13T14:17:56;26.50;50.80
19397;DHT22;9834;48.076;11.878;2023-07-13T14:20:24;26.10;50.70
19397;DHT22;9834;48.076;11.878;2023-07-13T14:22:52;26.10;50.90
19397;DHT22;9834;48.076;11.878;2023-07-13T14:25:21;26.00;51.30
19397;DHT22;9834;48.076;11.878;2023-07-13T14:27:51;26.10;50.50
19397;DHT22;9834;48.076;11.878;2023-07-13T14:30:22;26.10;51.80
19397;DHT22;9834;48.076;11.878;2023-07-13T14:32:50;25.90;52.90
19397;DHT22;9834;48.076;11.878;2023-07-13T14:35:20;25.90;52.90
19397;DHT22;9834;48.076;11.878;2023-07-13T14:37:49;25.90;52.70
19397;DHT22;9834;48.076;11.878;2023-07-13T14:40:19;26.00;52.70
19397;DHT22;9834;48.076;11.878;2023-07-13T14:42:46;25.90;52.40
19397;DHT22;9834;48.076;11.878;2023-07-13T14:45:14;25.70;53.00
19397;DHT22;9834;48.076;11.878;2023-07-13T14:47:42;25.80;53.50
19397;DHT22;9834;48.076;11.878;2023-07-13T14:50:16;26.20;53.70
19397;DHT22;9834;48.076;11.878;2023-07-13T14:52:44;27.40;50.00
19397;DHT22;9834;48.076;11.878;2023-07-13T14:55:12;28.40;50.20
19397;DHT22;9834;48.076;11.878;2023-07-13T14:57:39;30.40;44.20
19397;DHT22;9834;48.076;11.878;2023-07-13T15:00:13;29.70;45.70
19397;DHT22;9834;48.076;11.878;2023-07-13T15:02:43;30.00;44.80
19397;DHT22;9834;48.076;11.878;2023-07-13T15:05:16;29.70;46.50
19397;DHT22;9834;48.076;11.878;2023-07-13T15:07:43;30.20;44.30
19397;DHT22;9834;48.076;11.878;2023-07-13T15:10:15;31.70;43.30
19397;DHT22;9834;48.076;11.878;2023-07-13T15:12:43;32.00;40.20
19397;DHT22;9834;48.076;11.878;2023-07-13T15:15:10;31.40;41.70
19397;DHT22;9834;48.076;11.878;2023-07-13T15:17:39;32.00;42.60
19397;DHT22;9834;48.076;11.878;2023-07-13T15:20:17;33.20;40.00
19397;DHT22;9834;48.076;11.878;2023-07-13T15:22:46;32.60;40.30
19397;DHT22;9834;48.076;11.878;2023-07-13T15:25:17;31.80;41.90
19397;DHT22;9834;48.076;11.878;2023-07-13T15:27:45;32.20;41.20
19397;DHT22;9834;48.076;11.878;2023-07-13T15:30:13;31.50;41.80
19397;DHT22;9834;48.076;11.878;2023-07-13T15:32:41;30.00;43.90
19397;DHT22;9834;48.076;11.878;2023-07-13T15:35:14;31.30;44.20
19397;DHT22;9834;48.076;11.878;2023-07-13T15:37:43;33.00;41.10
19397;DHT22;9834;48.076;11.878;2023-07-13T15:40:12;33.50;38.90
19397;DHT22;9834;48.076;11.878;2023-07-13T15:42:39;33.20;38.30
19397;DHT22;9834;48.076;11.878;2023-07-13T15:45:25;33.20;37.50